createdAt,value
2023-04-04T00:01:45.832Z,71.00
2023-04-04T00:04:12.796Z,71.10
2023-04-04T00:06:44.419Z,71.00
2023-04-04T00:09:12.923Z,71.20
2023-04-04T00:11:42.233Z,71.30
2023-04-04T00:14:09.203Z,71.20
2023-04-04T00:16:36.448Z,71.30
2023-04-04T00:19:03.551Z,71.40
2023-04-04T00:21:30.707Z,71.60
2023-04-04T00:23:58.537Z,71.60
2023-04-04T00:26:26.736Z,71.50
2023-04-04T00:28:53.804Z,71.40
2023-04-04T00:31:21.575Z,71.40
2023-04-04T00:33:48.557Z,71.20
2023-04-04T00:36:15.479Z,71.10
2023-04-04T00:38:42.420Z,71.00
2023-04-04T00:41:09.404Z,70.80
2023-04-04T00:43:36.490Z,70.70
2023-04-04T00:46:03.966Z,70.60
2023-04-04T00:48:31.363Z,71.40
2023-04-04T00:50:58.312Z,70.60
2023-04-04T00:53:25.267Z,70.70
2023-04-04T00:55:52.265Z,70.80
2023-04-04T00:58:19.644Z,70.80
2023-04-04T01:00:46.698Z,70.80
2023-04-04T01:03:14.648Z,70.90
2023-04-04T01:05:41.962Z,71.10
2023-04-04T01:08:09.036Z,71.30
2023-04-04T01:10:36.757Z,71.30
2023-04-04T01:13:03.808Z,71.40
2023-04-04T01:15:31.208Z,71.40
2023-04-04T01:18:02.412Z,71.60
2023-04-04T01:20:33.890Z,71.70
2023-04-04T01:23:03.219Z,71.70
2023-04-04T01:25:34.823Z,71.70
2023-04-04T01:28:09.912Z,71.60
2023-04-04T01:30:40.167Z,71.60
2023-04-04T01:33:16.731Z,71.70
2023-04-04T01:36:10.887Z,71.80
2023-04-04T01:38:43.852Z,71.80
2023-04-04T01:41:12.423Z,71.80
2023-04-04T01:43:45.937Z,71.90
2023-04-04T01:46:13.644Z,71.90
2023-04-04T01:48:40.986Z,72.00
2023-04-04T01:51:08.848Z,72.20
2023-04-04T01:53:36.245Z,72.30
2023-04-04T01:56:03.325Z,72.30
2023-04-04T01:58:32.723Z,72.40
2023-04-04T02:00:59.975Z,72.30
2023-04-04T02:03:27.051Z,72.30
2023-04-04T02:05:54.166Z,72.40
2023-04-04T02:08:21.573Z,72.30
2023-04-04T02:10:53.573Z,72.40
2023-04-04T02:13:20.485Z,72.40
2023-04-04T02:15:50.752Z,72.30
2023-04-04T02:18:18.418Z,72.40
2023-04-04T02:20:45.465Z,72.40
2023-04-04T02:23:12.443Z,72.50
2023-04-04T02:25:39.357Z,72.50
2023-04-04T02:28:09.294Z,72.60
2023-04-04T02:30:36.170Z,72.70
2023-04-04T02:33:04.212Z,72.80
2023-04-04T02:35:32.199Z,72.90
2023-04-04T02:37:59.264Z,72.90
2023-04-04T02:40:41.612Z,72.90
2023-04-04T02:43:09.329Z,72.70
2023-04-04T02:45:37.748Z,72.60
2023-04-04T02:48:23.195Z,72.50
2023-04-04T02:50:52.755Z,72.40
2023-04-04T02:53:19.928Z,72.30
2023-04-04T02:55:49.649Z,72.80
2023-04-04T02:58:16.685Z,72.20
2023-04-04T03:00:43.789Z,72.30
2023-04-04T03:03:11.474Z,72.50
2023-04-04T03:05:43.285Z,72.60
2023-04-04T03:08:10.320Z,72.60
2023-04-04T03:10:37.447Z,72.60
2023-04-04T03:13:04.415Z,72.80
2023-04-04T03:15:35.065Z,72.80
2023-04-04T03:18:03.346Z,73.00
2023-04-04T03:20:33.097Z,73.00
2023-04-04T03:23:00.058Z,73.20
2023-04-04T03:25:26.992Z,73.20
2023-04-04T03:27:54.918Z,73.20
2023-04-04T03:30:27.198Z,73.30
2023-04-04T03:32:55.400Z,73.40
2023-04-04T03:35:22.494Z,73.70
2023-04-04T03:37:49.411Z,73.70
2023-04-04T03:40:16.802Z,73.80
2023-04-04T03:42:43.805Z,74.00
2023-04-04T03:45:12.946Z,74.00
2023-04-04T03:47:42.599Z,74.10
2023-04-04T03:50:10.684Z,74.30
2023-04-04T03:52:43.488Z,74.40
2023-04-04T03:55:10.472Z,74.60
2023-04-04T03:57:37.747Z,74.60
2023-04-04T04:00:09.374Z,74.70
2023-04-04T04:02:39.471Z,74.70
2023-04-04T04:05:07.736Z,74.90
2023-04-04T04:07:34.776Z,75.00
2023-04-04T04:10:01.847Z,75.20
2023-04-04T04:12:28.907Z,75.20
2023-04-04T04:14:55.849Z,75.30
2023-04-04T04:17:23.021Z,75.40
2023-04-04T04:19:49.990Z,75.20
2023-04-04T04:22:17.890Z,75.20
2023-04-04T04:24:45.045Z,75.10
2023-04-04T04:27:12.058Z,75.20
2023-04-04T04:29:39.017Z,75.20
2023-04-04T04:32:06.005Z,75.20
2023-04-04T04:34:38.256Z,75.20
2023-04-04T04:37:06.213Z,75.40
2023-04-04T04:39:46.698Z,75.70
2023-04-04T04:42:31.471Z,75.60
2023-04-04T04:45:00.661Z,75.80
2023-04-04T04:47:33.804Z,75.90
2023-04-04T04:50:10.800Z,75.80
2023-04-04T04:52:44.835Z,75.70
2023-04-04T04:55:13.546Z,75.60
2023-04-04T04:57:48.096Z,75.50
2023-04-04T05:00:21.331Z,75.40
2023-04-04T05:02:48.781Z,75.30
2023-04-04T05:05:20.722Z,75.20
2023-04-04T05:07:48.240Z,75.10
2023-04-04T05:10:16.421Z,75.00
2023-04-04T05:12:44.871Z,74.70
2023-04-04T05:15:17.306Z,74.60
2023-04-04T05:17:48.063Z,74.30
2023-04-04T05:20:15.625Z,74.20
2023-04-04T05:22:45.947Z,74.00
2023-04-04T05:25:17.196Z,73.80
2023-04-04T05:27:49.738Z,73.70
2023-04-04T05:30:19.626Z,73.50
2023-04-04T05:32:58.994Z,73.30
2023-04-04T05:35:28.877Z,73.40
2023-04-04T05:37:57.677Z,73.20
2023-04-04T05:40:25.028Z,70.40
2023-04-04T05:43:04.338Z,67.40
2023-04-04T05:45:40.503Z,65.40
2023-04-04T05:48:08.330Z,64.00
2023-04-04T05:50:45.407Z,63.40
2023-04-04T05:53:12.436Z,63.20
2023-04-04T05:55:42.285Z,62.60
2023-04-04T05:58:10.843Z,61.80
2023-04-04T06:00:49.481Z,60.90
2023-04-04T06:03:19.688Z,60.00
2023-04-04T06:05:53.043Z,57.40
2023-04-04T06:08:20.481Z,55.20
2023-04-04T06:10:47.480Z,53.20
2023-04-04T06:13:14.421Z,51.70
2023-04-04T06:15:45.483Z,49.70
2023-04-04T06:18:12.473Z,48.40
2023-04-04T06:20:39.673Z,46.70
2023-04-04T06:23:06.650Z,45.70
2023-04-04T06:25:36.973Z,44.60
2023-04-04T06:28:03.967Z,43.70
2023-04-04T06:30:35.112Z,42.10
2023-04-04T06:33:02.366Z,41.60
2023-04-04T06:35:29.997Z,40.90
2023-04-04T06:38:03.078Z,40.00
2023-04-04T06:40:32.903Z,39.00
2023-04-04T06:43:00.506Z,38.00
2023-04-04T06:45:35.667Z,36.40
2023-04-04T06:48:03.706Z,35.90
2023-04-04T06:50:34.805Z,34.80
2023-04-04T06:53:06.916Z,34.10
2023-04-04T06:55:35.589Z,33.30
2023-04-04T06:58:04.456Z,32.90
2023-04-04T07:00:34.744Z,32.10
2023-04-04T07:03:05.527Z,30.80
2023-04-04T07:05:32.441Z,30.00
2023-04-04T07:08:04.538Z,29.60
2023-04-04T07:10:41.113Z,29.10
2023-04-04T07:13:11.917Z,28.30
2023-04-04T07:15:42.957Z,26.40
2023-04-04T07:18:11.610Z,25.80
2023-04-04T07:20:46.024Z,25.00
2023-04-04T07:23:12.909Z,24.80
2023-04-04T07:25:39.783Z,24.70
2023-04-04T07:28:12.826Z,23.40
2023-04-04T07:30:40.669Z,24.10
2023-04-04T07:33:08.120Z,23.60
2023-04-04T07:35:35.082Z,22.30
2023-04-04T07:38:03.054Z,21.90
2023-04-04T07:40:30.082Z,22.40
2023-04-04T07:42:56.994Z,22.30
2023-04-04T07:45:23.854Z,22.20
2023-04-04T07:47:51.115Z,21.90
2023-04-04T07:50:18.135Z,21.50
2023-04-04T07:52:49.368Z,21.80
2023-04-04T07:55:16.889Z,21.50
2023-04-04T07:57:43.944Z,21.70
2023-04-04T08:00:11.513Z,21.70
2023-04-04T08:02:41.163Z,21.30
2023-04-04T08:05:08.502Z,20.50
2023-04-04T08:07:36.368Z,20.60
2023-04-04T08:10:03.242Z,21.00
2023-04-04T08:12:30.063Z,20.30
2023-04-04T08:14:56.951Z,20.20
2023-04-04T08:17:24.755Z,19.60
2023-04-04T08:19:51.647Z,20.00
2023-04-04T08:22:18.659Z,20.10
2023-04-04T08:24:46.337Z,20.40
2023-04-04T08:27:14.961Z,19.20
2023-04-04T08:29:42.051Z,19.60
2023-04-04T08:32:09.582Z,20.20
2023-04-04T08:34:36.489Z,20.50
2023-04-04T08:37:03.473Z,20.60
2023-04-04T08:39:30.377Z,20.60
2023-04-04T08:42:01.594Z,20.50
2023-04-04T08:44:30.629Z,20.40
2023-04-04T08:46:59.548Z,20.40
2023-04-04T08:49:27.420Z,20.80
2023-04-04T08:51:56.422Z,21.20
2023-04-04T08:54:24.918Z,20.80
2023-04-04T08:56:53.101Z,20.40
2023-04-04T08:59:21.014Z,20.50
2023-04-04T09:01:47.952Z,20.60
2023-04-04T09:04:15.447Z,20.20
2023-04-04T09:06:42.343Z,20.90
2023-04-04T09:09:09.541Z,20.70
2023-04-04T09:11:36.832Z,20.80
2023-04-04T09:14:04.893Z,20.90
2023-04-04T09:16:32.027Z,20.90
2023-04-04T09:18:58.916Z,20.70
2023-04-04T09:21:26.377Z,20.40
2023-04-04T09:24:00.172Z,20.30
2023-04-04T09:26:27.343Z,20.40
2023-04-04T09:28:54.396Z,20.50
2023-04-04T09:31:21.375Z,20.60
2023-04-04T09:33:51.301Z,20.30
2023-04-04T09:36:18.794Z,20.30
2023-04-04T09:38:48.663Z,20.20
2023-04-04T09:41:16.496Z,20.30
2023-04-04T09:43:46.796Z,20.20
2023-04-04T09:46:13.954Z,20.50
2023-04-04T09:48:41.624Z,20.40
2023-04-04T09:51:12.039Z,20.50
2023-04-04T09:53:39.930Z,20.20
2023-04-04T09:56:07.100Z,20.80
2023-04-04T09:58:44.090Z,20.90
2023-04-04T10:01:31.390Z,21.00
2023-04-04T10:04:11.842Z,20.20
2023-04-04T10:09:30.532Z,20.10
2023-04-04T10:12:24.948Z,20.70
2023-04-04T10:15:01.827Z,20.50
2023-04-04T10:17:37.151Z,20.40
2023-04-04T10:20:13.975Z,20.40
2023-04-04T10:22:44.756Z,20.50
2023-04-04T10:25:17.496Z,21.00
2023-04-04T10:27:50.172Z,21.50
2023-04-04T10:30:21.262Z,21.10
2023-04-04T10:33:02.377Z,20.80
2023-04-04T10:35:31.019Z,20.40
2023-04-04T10:37:58.911Z,20.90
2023-04-04T10:40:34.976Z,20.80
2023-04-04T10:43:09.752Z,20.60
2023-04-04T10:45:43.767Z,20.30
2023-04-04T10:48:11.605Z,20.60
2023-04-04T10:50:51.368Z,20.50
2023-04-04T10:53:24.704Z,20.90
2023-04-04T10:55:57.106Z,20.60
2023-04-04T10:58:29.668Z,20.80
2023-04-04T11:00:57.805Z,20.70
2023-04-04T11:03:25.623Z,20.20
2023-04-04T11:06:00.279Z,20.50
2023-04-04T11:08:35.509Z,20.60
2023-04-04T11:11:22.532Z,20.40
2023-04-04T11:14:23.640Z,20.40
2023-04-04T11:16:58.165Z,20.80
2023-04-04T11:19:53.102Z,20.40
2023-04-04T11:22:25.226Z,20.00
2023-04-04T11:25:25.985Z,19.60
2023-04-04T11:28:03.857Z,20.00
2023-04-04T11:30:44.972Z,19.90
2023-04-04T11:33:25.401Z,20.60
2023-04-04T11:35:52.604Z,20.10
2023-04-04T11:38:28.150Z,19.50
2023-04-04T11:40:59.440Z,19.70
2023-04-04T11:43:27.140Z,19.50
2023-04-04T11:45:58.534Z,19.50
2023-04-04T11:48:30.707Z,19.30
2023-04-04T11:51:02.844Z,19.80
2023-04-04T11:53:31.540Z,19.40
2023-04-04T11:59:11.676Z,19.50
2023-04-04T12:02:00.943Z,19.40
2023-04-04T12:04:32.041Z,19.20
2023-04-04T12:07:38.286Z,19.40
2023-04-04T12:10:13.446Z,20.00
2023-04-04T12:12:42.685Z,19.60
2023-04-04T12:15:23.772Z,19.80
2023-04-04T12:17:52.934Z,19.60
2023-04-04T12:23:11.296Z,19.70
2023-04-04T12:25:41.266Z,19.70
2023-04-04T12:28:13.869Z,19.10
2023-04-04T12:30:47.512Z,19.30
2023-04-04T12:33:20.397Z,19.30
2023-04-04T12:35:53.593Z,19.50
2023-04-04T12:38:20.795Z,19.90
2023-04-04T12:40:47.665Z,20.70
2023-04-04T12:43:35.712Z,21.30
2023-04-04T12:46:07.066Z,21.50
2023-04-04T12:48:37.144Z,20.80
2023-04-04T12:51:06.326Z,20.90
2023-04-04T12:53:52.206Z,21.00
2023-04-04T12:56:27.208Z,21.30
2023-04-04T13:01:43.430Z,20.60
2023-04-04T13:04:11.189Z,20.80
2023-04-04T13:06:38.730Z,20.60
2023-04-04T13:09:08.311Z,20.20
2023-04-04T13:11:54.540Z,19.50
2023-04-04T13:14:23.064Z,19.50
2023-04-04T13:17:15.824Z,19.70
2023-04-04T13:19:51.829Z,19.60
2023-04-04T13:22:48.040Z,20.20
2023-04-04T13:25:15.784Z,20.10
2023-04-04T13:27:45.062Z,20.40
2023-04-04T13:30:22.130Z,20.70
2023-04-04T13:32:52.145Z,20.70
2023-04-04T13:35:25.656Z,22.00
2023-04-04T13:38:01.402Z,22.50
2023-04-04T13:40:31.050Z,22.90
2023-04-04T13:42:59.464Z,22.30
2023-04-04T13:45:30.808Z,22.10
2023-04-04T13:48:05.262Z,21.80
2023-04-04T13:50:47.722Z,21.80
2023-04-04T13:53:26.349Z,21.80
2023-04-04T13:58:29.394Z,23.30
2023-04-04T14:01:01.767Z,23.80
2023-04-04T14:03:35.177Z,23.70
2023-04-04T14:06:10.941Z,23.80
2023-04-04T14:08:38.957Z,23.90
2023-04-04T14:11:12.590Z,24.20
2023-04-04T14:13:48.970Z,25.10
2023-04-04T14:16:25.184Z,26.30
2023-04-04T14:18:55.864Z,26.50
2023-04-04T14:21:29.102Z,26.70
2023-04-04T14:23:58.071Z,27.00
2023-04-04T14:26:26.379Z,27.60
2023-04-04T14:28:57.231Z,28.20
2023-04-04T14:31:24.790Z,28.70
2023-04-04T14:36:59.405Z,28.70
2023-04-04T14:39:32.374Z,28.20
2023-04-04T14:42:04.144Z,28.20
2023-04-04T14:44:34.002Z,28.10
2023-04-04T14:47:02.224Z,28.40
2023-04-04T14:49:29.750Z,28.80
2023-04-04T14:51:56.756Z,29.10
2023-04-04T14:54:26.913Z,29.70
2023-04-04T14:57:04.885Z,30.60
2023-04-04T14:59:36.683Z,31.10
2023-04-04T15:02:13.101Z,31.80
2023-04-04T15:04:43.305Z,31.80
2023-04-04T15:07:11.781Z,30.60
2023-04-04T15:09:38.950Z,30.60
2023-04-04T15:12:09.977Z,30.60
2023-04-04T15:14:37.340Z,30.80
2023-04-04T15:17:05.253Z,30.70
2023-04-04T15:19:46.293Z,30.60
2023-04-04T15:22:14.738Z,30.90
2023-04-04T15:24:44.993Z,31.20
2023-04-04T15:27:11.906Z,31.20
2023-04-04T15:29:44.837Z,30.90
2023-04-04T15:32:15.134Z,30.90
2023-04-04T15:34:42.989Z,31.20
2023-04-04T15:37:10.476Z,31.30
2023-04-04T15:42:41.603Z,32.00
2023-04-04T15:45:10.968Z,33.00
2023-04-04T15:47:43.389Z,34.00
2023-04-04T15:50:18.792Z,34.80
2023-04-04T15:52:50.214Z,34.80
2023-04-04T15:55:27.166Z,35.30
2023-04-04T15:57:55.565Z,35.70
2023-04-04T16:00:36.031Z,36.80
2023-04-04T16:03:12.292Z,37.10
2023-04-04T16:05:57.422Z,37.40
2023-04-04T16:08:38.165Z,37.80
2023-04-04T16:11:07.211Z,38.60
2023-04-04T16:13:34.995Z,39.10
2023-04-04T16:16:02.059Z,39.10
2023-04-04T16:18:29.608Z,39.10
2023-04-04T16:20:56.573Z,39.30
2023-04-04T16:23:23.424Z,39.20
2023-04-04T16:25:50.356Z,39.70
2023-04-04T16:28:17.337Z,39.90
2023-04-04T16:30:44.244Z,40.20
2023-04-04T16:33:11.256Z,40.90
2023-04-04T16:35:39.500Z,41.40
2023-04-04T16:38:06.640Z,41.40
2023-04-04T16:40:33.915Z,41.50
2023-04-04T16:43:01.051Z,41.70
2023-04-04T16:45:27.984Z,42.00
2023-04-04T16:47:54.913Z,41.90
2023-04-04T16:50:21.894Z,42.40
2023-04-04T16:52:48.779Z,42.60
2023-04-04T16:55:16.065Z,42.90
2023-04-04T16:57:43.598Z,43.00
2023-04-04T17:00:10.673Z,43.30
2023-04-04T17:02:45.678Z,43.20
2023-04-04T17:05:13.721Z,43.50
2023-04-04T17:07:41.382Z,43.80
2023-04-04T17:10:08.880Z,44.20
2023-04-04T17:12:36.189Z,44.60
2023-04-04T17:15:04.770Z,44.90
2023-04-04T17:17:31.839Z,45.10
2023-04-04T17:19:58.752Z,45.00
2023-04-04T17:22:26.638Z,45.30
2023-04-04T17:24:53.463Z,45.50
2023-04-04T17:27:20.416Z,45.90
2023-04-04T17:29:47.203Z,45.80
2023-04-04T17:32:14.441Z,45.90
2023-04-04T17:34:42.158Z,46.40
2023-04-04T17:37:13.289Z,46.90
2023-04-04T17:39:40.226Z,47.40
2023-04-04T17:42:07.049Z,47.70
2023-04-04T17:44:33.938Z,47.90
2023-04-04T17:47:00.871Z,48.20
2023-04-04T17:49:27.674Z,48.50
2023-04-04T17:51:54.600Z,48.80
2023-04-04T17:54:22.475Z,49.10
2023-04-04T17:56:50.433Z,49.20
2023-04-04T17:59:17.809Z,49.60
2023-04-04T18:01:44.879Z,49.90
2023-04-04T18:04:12.139Z,50.00
2023-04-04T18:06:40.512Z,50.10
2023-04-04T18:09:10.116Z,50.30
2023-04-04T18:11:37.420Z,50.70
2023-04-04T18:14:04.255Z,51.10
2023-04-04T18:16:38.885Z,51.40
2023-04-04T18:19:07.152Z,51.60
2023-04-04T18:21:33.942Z,52.10
2023-04-04T18:24:00.826Z,52.60
2023-04-04T18:26:27.836Z,52.80
2023-04-04T18:28:54.687Z,53.10
2023-04-04T18:31:21.632Z,53.30
2023-04-04T18:33:49.845Z,53.60
2023-04-04T18:36:17.008Z,53.90
2023-04-04T18:38:45.083Z,54.10
2023-04-04T18:41:11.912Z,54.40
2023-04-04T18:43:38.762Z,54.50
2023-04-04T18:46:05.987Z,54.80
2023-04-04T18:48:33.537Z,55.00
2023-04-04T18:51:00.635Z,55.00
2023-04-04T18:53:30.827Z,55.20
2023-04-04T18:55:58.264Z,55.30
2023-04-04T18:58:26.137Z,55.60
2023-04-04T19:00:54.476Z,55.80
2023-04-04T19:03:22.002Z,56.00
2023-04-04T19:05:49.381Z,56.20
2023-04-04T19:08:17.190Z,56.30
2023-04-04T19:10:45.113Z,56.50
2023-04-04T19:13:12.119Z,56.80
2023-04-04T19:15:39.124Z,56.90
2023-04-04T19:18:06.158Z,57.10
2023-04-04T19:20:33.185Z,57.20
2023-04-04T19:23:00.232Z,57.30
2023-04-04T19:25:27.249Z,57.50
2023-04-04T19:27:54.169Z,57.60
2023-04-04T19:30:39.678Z,57.50
2023-04-04T19:33:13.697Z,57.60
2023-04-04T19:36:00.409Z,57.50
2023-04-04T19:38:28.719Z,57.40
2023-04-04T19:40:59.948Z,57.20
2023-04-04T19:43:28.387Z,57.10
2023-04-04T19:45:56.392Z,57.10
2023-04-04T19:48:35.477Z,57.10
2023-04-04T19:51:09.316Z,57.70
2023-04-04T19:53:36.285Z,57.20
2023-04-04T19:56:09.729Z,57.10
2023-04-04T19:58:37.371Z,57.20
2023-04-04T20:01:05.042Z,57.40
2023-04-04T20:03:34.911Z,57.40
2023-04-04T20:06:06.940Z,57.50
2023-04-04T20:08:36.222Z,57.60
2023-04-04T20:11:04.700Z,57.60
2023-04-04T20:13:32.952Z,57.70
2023-04-04T20:16:01.624Z,57.70
2023-04-04T20:18:29.347Z,57.80
2023-04-04T20:21:06.836Z,57.80
2023-04-04T20:23:39.877Z,57.90
2023-04-04T20:26:07.358Z,57.80
2023-04-04T20:28:34.769Z,57.80
2023-04-04T20:31:02.618Z,57.80
2023-04-04T20:33:35.646Z,57.80
2023-04-04T20:36:11.329Z,57.90
2023-04-04T20:38:39.619Z,57.90
2023-04-04T20:41:18.574Z,58.00
2023-04-04T20:44:02.496Z,58.00
2023-04-04T20:46:39.696Z,58.10
2023-04-04T20:49:16.115Z,58.00
2023-04-04T20:51:50.926Z,58.00
2023-04-04T20:54:32.604Z,58.10
2023-04-04T20:56:59.932Z,58.20
2023-04-04T20:59:28.103Z,58.20
2023-04-04T21:02:06.875Z,58.30
2023-04-04T21:04:39.574Z,58.40
2023-04-04T21:07:34.646Z,58.40
2023-04-04T21:10:08.946Z,58.30
2023-04-04T21:12:36.361Z,58.40
2023-04-04T21:15:07.331Z,58.40
2023-04-04T21:17:34.233Z,58.50
2023-04-04T21:20:01.274Z,58.50
2023-04-04T21:22:28.147Z,58.50
2023-04-04T21:24:54.991Z,58.50
2023-04-04T21:27:33.313Z,58.60
2023-04-04T21:30:00.377Z,58.60
2023-04-04T21:32:28.360Z,58.60
2023-04-04T21:34:55.336Z,58.80
2023-04-04T21:37:22.466Z,58.80
2023-04-04T21:39:50.442Z,59.00
2023-04-04T21:42:18.737Z,59.00
2023-04-04T21:44:45.879Z,59.00
2023-04-04T21:47:13.920Z,59.10
2023-04-04T21:49:42.152Z,59.10
2023-04-04T21:52:09.053Z,59.00
2023-04-04T21:54:35.960Z,59.60
2023-04-04T21:57:02.815Z,59.10
2023-04-04T21:59:30.774Z,59.10
2023-04-04T22:01:57.666Z,59.20
2023-04-04T22:04:24.629Z,59.20
2023-04-04T22:06:51.534Z,59.00
2023-04-04T22:09:22.598Z,58.90
2023-04-04T22:11:49.528Z,58.80
2023-04-04T22:14:17.596Z,58.80
2023-04-04T22:16:45.360Z,58.80
2023-04-04T22:19:12.296Z,58.70
2023-04-04T22:21:39.276Z,58.90
2023-04-04T22:24:06.739Z,58.90
2023-04-04T22:26:33.804Z,59.10
2023-04-04T22:29:04.470Z,59.10
2023-04-04T22:31:34.117Z,59.10
2023-04-04T22:34:03.148Z,59.10
2023-04-04T22:36:30.504Z,59.00
2023-04-04T22:38:57.836Z,58.80
2023-04-04T22:41:27.213Z,58.60
2023-04-04T22:43:54.068Z,58.60
2023-04-04T22:46:21.022Z,59.20
2023-04-04T22:48:48.277Z,58.50
2023-04-04T22:51:15.713Z,58.40
2023-04-04T22:53:44.282Z,58.40
2023-04-04T22:56:11.516Z,58.30
2023-04-04T22:58:38.435Z,58.30
2023-04-04T23:01:05.630Z,58.30
2023-04-04T23:03:32.670Z,58.30
2023-04-04T23:05:59.492Z,58.20
2023-04-04T23:08:26.550Z,58.10
2023-04-04T23:10:53.407Z,58.40
2023-04-04T23:13:20.831Z,58.50
2023-04-04T23:15:47.669Z,58.60
2023-04-04T23:18:14.556Z,58.60
2023-04-04T23:20:41.993Z,59.00
2023-04-04T23:23:08.922Z,58.90
2023-04-04T23:25:35.920Z,59.10
2023-04-04T23:28:02.764Z,59.30
2023-04-04T23:30:29.629Z,59.40
2023-04-04T23:32:56.519Z,59.50
2023-04-04T23:35:23.421Z,59.80
2023-04-04T23:37:50.247Z,60.10
2023-04-04T23:40:17.251Z,60.40
2023-04-04T23:42:44.068Z,60.60
2023-04-04T23:45:11.609Z,61.00
2023-04-04T23:47:38.842Z,61.00
2023-04-04T23:50:05.980Z,61.20
2023-04-04T23:52:33.000Z,61.40
2023-04-04T23:54:59.825Z,61.50
2023-04-04T23:57:26.805Z,61.70
2023-04-04T23:59:53.638Z,61.80
